Time;durP1;ratioP1;P1;durP2;ratioP2;P2;SDS_P1;SDS_P2;PMS_P1;PMS_P2;Temp;Humidity;BMP_temperature;BMP_pressure;BME280_temperature;BME280_humidity;BME280_pressure;Samples;Min_cycle;Max_cycle;Signal;HPM_P1;HPM_P2
2022/01/03 00:00:23;;;;;;;11.80;3.20;;;;;;;-9.05;88.51;98859.22;4995203;28;20498;-66
2022/01/03 00:02:49;;;;;;;9.82;3.70;;;;;;;-8.74;88.75;98921.06;4995233;28;20485;-69
2022/01/03 00:05:25;;;;;;;11.68;3.90;;;;;;;-8.91;89.70;98892.81;5015455;28;20399;-68
2022/01/03 00:07:51;;;;;;;9.82;2.75;;;;;;;-9.08;89.58;98848.00;4998877;28;20168;-68
2022/01/03 00:10:18;;;;;;;10.02;3.00;;;;;;;-8.75;89.49;98914.13;4966649;28;20081;-66
2022/01/03 00:12:45;;;;;;;9.00;3.45;;;;;;;-8.76;89.60;98912.44;5016018;28;20065;-66
2022/01/03 00:15:13;;;;;;;12.35;4.00;;;;;;;-8.88;89.74;98886.66;5013060;28;20056;-67
2022/01/03 00:17:39;;;;;;;10.77;3.08;;;;;;;-8.79;90.37;98902.91;4995023;28;20072;-66
2022/01/03 00:20:06;;;;;;;9.35;2.78;;;;;;;-8.75;90.48;98901.03;4978619;28;20054;-66
2022/01/03 00:22:40;;;;;;;11.60;3.50;;;;;;;-9.08;90.52;98838.38;4994738;28;20137;-66
2022/01/03 00:25:10;;;;;;;10.70;2.97;;;;;;;-8.91;90.34;98850.94;4994866;28;20046;-66
2022/01/03 00:27:54;;;;;;;10.82;3.70;;;;;;;-8.79;90.11;98881.94;5012208;28;20494;-66
2022/01/03 00:30:21;;;;;;;11.07;3.05;;;;;;;-9.26;89.88;98802.34;4978877;28;20054;-68
2022/01/03 00:32:49;;;;;;;9.23;2.80;;;;;;;-8.84;90.74;98873.41;4978496;28;20141;-66
2022/01/03 00:35:16;;;;;;;9.20;3.00;;;;;;;-8.88;90.70;98861.31;4994941;28;20457;-66
2022/01/03 00:37:45;;;;;;;10.45;3.10;;;;;;;-8.98;91.00;98834.56;4994177;28;20046;-66
2022/01/03 00:40:17;;;;;;;11.73;3.95;;;;;;;-8.86;90.78;98858.63;4962088;28;20037;-66
2022/01/03 00:42:43;;;;;;;10.07;3.45;;;;;;;-8.90;90.82;98850.03;5012066;28;20097;-66
2022/01/03 00:45:09;;;;;;;9.57;4.00;;;;;;;-8.94;91.08;98842.31;4994627;28;20073;-67
2022/01/03 00:47:35;;;;;;;8.85;3.10;;;;;;;-9.04;90.37;98824.28;4961986;28;20149;-66
2022/01/03 00:50:07;;;;;;;9.15;3.42;;;;;;;-8.93;90.88;98836.16;5010915;28;20041;-66
2022/01/03 00:52:33;;;;;;;10.07;3.33;;;;;;;-8.92;91.02;98828.28;4994634;28;20088;-67
2022/01/03 00:54:59;;;;;;;11.55;2.78;;;;;;;-8.86;90.69;98827.22;4994247;28;20172;-67
2022/01/03 00:58:06;;;;;;;14.05;4.40;;;;;;;-8.93;90.60;98812.59;4994371;28;20081;-67
2022/01/03 01:00:36;;;;;;;11.85;3.40;;;;;;;-8.96;90.71;98804.84;4881554;29;20044;-66
2022/01/03 01:03:14;;;;;;;12.88;3.55;;;;;;;-8.90;90.67;98804.66;4965398;28;20064;-66
2022/01/03 01:05:47;;;;;;;14.10;3.22;;;;;;;-8.89;90.97;98795.88;4978533;28;20506;-66
2022/01/03 01:08:17;;;;;;;12.15;3.05;;;;;;;-8.91;91.14;98779.38;5011702;28;20640;-65
2022/01/03 01:10:44;;;;;;;11.57;2.70;;;;;;;-8.96;90.63;98778.66;5012165;28;20085;-65
2022/01/03 01:13:13;;;;;;;14.82;2.90;;;;;;;-8.93;90.76;98789.03;4994016;28;20590;-66
2022/01/03 01:15:41;;;;;;;8.48;2.90;;;;;;;-8.87;90.81;98781.00;4993744;28;20122;-65
2022/01/03 01:18:09;;;;;;;10.98;3.55;;;;;;;-8.89;91.47;98765.31;4977421;28;20046;-65
2022/01/03 01:20:39;;;;;;;11.73;3.47;;;;;;;-8.86;91.19;98769.59;4978247;28;20053;-66
2022/01/03 01:23:06;;;;;;;12.35;3.85;;;;;;;-9.16;91.03;98725.22;4978401;28;20073;-66
2022/01/03 01:28:06;;;;;;;11.57;4.18;;;;;;;-8.96;91.71;98757.72;4993688;28;20042;-65
2022/01/03 01:30:33;;;;;;;13.68;4.32;;;;;;;-8.98;91.67;98755.16;4993950;28;20085;-65
2022/01/03 01:33:03;;;;;;;11.48;4.05;;;;;;;-8.98;91.89;98750.78;5009983;28;20041;-65
2022/01/03 01:35:35;;;;;;;;;;;;;;;-8.92;92.02;98743.63;5011888;28;20089;-65
2022/01/03 01:38:03;;;;;;;10.93;3.72;;;;;;;-9.14;91.99;98707.72;4993692;28;19983;-65
2022/01/03 01:40:29;;;;;;;10.85;3.85;;;;;;;-8.98;92.24;98735.06;4993223;28;20128;-66
2022/01/03 01:42:55;;;;;;;11.63;3.63;;;;;;;-9.36;92.04;98680.56;4993622;28;20050;-66
2022/01/03 01:45:25;;;;;;;14.93;4.28;;;;;;;-9.04;92.20;98735.28;4993350;28;20405;-65
2022/01/03 01:47:55;;;;;;;12.35;3.70;;;;;;;-9.01;92.69;98729.94;5009573;28;20133;-66
2022/01/03 01:50:22;;;;;;;11.43;3.42;;;;;;;-9.07;93.06;98724.91;4993347;28;20516;-65
2022/01/03 01:52:49;;;;;;;13.80;3.47;;;;;;;-8.97;92.87;98725.44;4960910;28;20037;-66
2022/01/03 01:55:16;;;;;;;10.65;4.30;;;;;;;-9.01;93.18;98723.84;4977141;28;20050;-66
2022/01/03 01:58:06;;;;;;;14.43;3.75;;;;;;;-9.02;93.19;98717.75;4977126;28;20390;-66
2022/01/03 02:00:44;;;;;;;13.00;3.60;;;;;;;-9.01;93.24;98703.75;4994145;28;20521;-65
2022/01/03 02:03:21;;;;;;;11.82;4.43;;;;;;;-9.06;93.29;98692.59;4977010;28;20489;-67
2022/01/03 02:06:10;;;;;;;13.95;4.03;;;;;;;-9.07;93.27;98692.63;4993219;28;20120;-65
2022/01/03 02:08:44;;;;;;;12.65;3.47;;;;;;;-9.05;93.46;98683.84;4993072;28;20046;-66
2022/01/03 02:11:42;;;;;;;12.77;3.70;;;;;;;-8.96;93.22;98689.66;4960964;28;20074;-65
2022/01/03 02:14:09;;;;;;;13.70;4.90;;;;;;;-9.03;93.28;98682.03;4976862;28;20469;-65
2022/01/03 02:16:38;;;;;;;13.73;3.70;;;;;;;-9.10;93.40;98672.69;5009521;28;20428;-65
2022/01/03 02:19:04;;;;;;;11.57;4.15;;;;;;;-9.07;93.95;98672.53;4993160;28;20394;-65
2022/01/03 02:21:31;;;;;;;16.08;5.53;;;;;;;-9.13;94.30;98671.94;4976825;28;20080;-65
2022/01/03 02:23:57;;;;;;;15.30;5.95;;;;;;;-9.07;94.10;98672.53;4976878;28;20081;-66
2022/01/03 02:26:23;;;;;;;11.40;5.00;;;;;;;-9.08;93.99;98670.84;4993202;28;20077;-65
2022/01/03 02:28:50;;;;;;;14.45;4.88;;;;;;;-9.06;94.22;98663.81;5009082;28;20048;-65
2022/01/03 02:31:17;;;;;;;13.52;4.95;;;;;;;-9.29;94.14;98624.50;4993190;28;20128;-66
2022/01/03 02:33:44;;;;;;;13.35;4.38;;;;;;;-9.12;94.47;98644.84;4977137;28;20077;-65
2022/01/03 02:36:11;;;;;;;12.70;4.38;;;;;;;-9.29;94.43;98625.34;4977531;28;20117;-65
2022/01/03 02:38:38;;;;;;;12.88;3.67;;;;;;;-9.16;94.97;98641.47;4992677;28;20049;-65
2022/01/03 02:41:04;;;;;;;16.80;5.32;;;;;;;-9.14;95.09;98644.03;4976524;28;20427;-65
2022/01/03 02:43:31;;;;;;;11.18;3.85;;;;;;;-9.16;95.08;98644.09;4992639;28;20498;-67
2022/01/03 02:45:58;;;;;;;11.23;3.88;;;;;;;-9.12;95.04;98643.06;4976730;28;20132;-65
2022/01/03 02:48:26;;;;;;;12.63;4.47;;;;;;;-9.15;95.28;98637.94;5010495;28;20088;-66
2022/01/03 02:50:54;;;;;;;16.77;4.47;;;;;;;-9.22;94.84;98621.59;4976990;28;20054;-66
2022/01/03 02:53:21;;;;;;;12.85;4.63;;;;;;;-9.12;94.80;98640.47;4976612;28;20038;-66
2022/01/03 02:55:47;;;;;;;12.15;4.22;;;;;;;-9.15;95.09;98629.25;4992578;28;20053;-66
2022/01/03 02:58:14;;;;;;;12.75;3.72;;;;;;;-9.30;95.15;98597.47;4992779;28;20057;-65
2022/01/03 03:00:51;;;;;;;14.93;4.50;;;;;;;-9.37;95.01;98574.19;4960968;28;20335;-65
2022/01/03 03:03:28;;;;;;;15.85;3.90;;;;;;;-9.55;95.05;98545.16;5008760;28;20041;-65
2022/01/03 03:05:58;;;;;;;12.38;4.70;;;;;;;-9.18;95.27;98614.50;4976328;28;20070;-65
2022/01/03 03:08:24;;;;;;;12.23;3.88;;;;;;;-9.20;95.76;98607.63;5008707;28;20057;-65
2022/01/03 03:10:50;;;;;;;12.40;3.92;;;;;;;-9.27;95.49;98597.38;5008826;28;20037;-66
2022/01/03 03:13:16;;;;;;;10.73;3.78;;;;;;;-9.19;95.77;98604.94;5008681;28;20207;-66
2022/01/03 03:15:43;;;;;;;12.10;4.10;;;;;;;-9.21;95.85;98591.06;4960904;28;20057;-65
2022/01/03 03:18:10;;;;;;;9.90;4.10;;;;;;;-9.21;95.61;98596.31;4975937;28;20108;-65
2022/01/03 03:20:36;;;;;;;22.35;4.25;;;;;;;-9.34;96.00;98574.09;4976566;28;20034;-66
2022/01/03 03:23:03;;;;;;;13.20;4.13;;;;;;;-9.23;95.77;98606.81;5008624;28;20204;-65
2022/01/03 03:25:33;;;;;;;10.90;3.90;;;;;;;-9.48;96.00;98567.56;4994964;28;20141;-65
2022/01/03 03:28:04;;;;;;;12.13;3.67;;;;;;;-9.65;95.54;98537.69;4963292;28;20123;-65
2022/01/03 03:30:36;;;;;;;12.57;3.55;;;;;;;-9.45;95.91;98563.16;5013209;28;20493;-66
2022/01/03 03:33:08;;;;;;;14.02;4.18;;;;;;;-9.42;95.69;98557.81;4996018;28;20357;-66
2022/01/03 03:35:37;;;;;;;10.45;3.47;;;;;;;-9.16;95.49;98598.75;5012175;28;20050;-67
2022/01/03 03:38:03;;;;;;;8.52;2.78;;;;;;;-9.11;95.27;98596.81;4995783;28;20046;-65
2022/01/03 03:40:29;;;;;;;12.27;3.58;;;;;;;-9.13;95.39;98594.25;5013116;28;20085;-65
2022/01/03 03:42:55;;;;;;;12.07;2.90;;;;;;;-9.09;95.35;98585.38;4996312;28;20073;-66
2022/01/03 03:45:22;;;;;;;12.45;3.88;;;;;;;-9.16;95.25;98583.91;4981893;28;20096;-71
2022/01/03 03:47:49;;;;;;;12.00;3.58;;;;;;;-9.15;95.38;98572.50;5015103;28;20042;-66
2022/01/03 03:50:14;;;;;;;9.63;3.45;;;;;;;-9.15;95.92;98572.50;4966923;28;20070;-66
2022/01/03 03:52:40;;;;;;;9.70;3.38;;;;;;;-9.17;95.92;98571.72;4995444;28;20056;-66
2022/01/03 03:55:07;;;;;;;11.50;3.63;;;;;;;-9.16;95.92;98569.97;5011751;28;20132;-66
2022/01/03 03:57:33;;;;;;;12.65;3.45;;;;;;;-9.21;95.64;98575.38;4995422;28;20071;-66
2022/01/03 04:00:00;;;;;;;12.18;4.60;;;;;;;-9.22;96.03;98578.88;4996156;28;20153;-66
2022/01/03 04:02:26;;;;;;;11.35;3.80;;;;;;;-9.25;95.56;98558.06;4996757;28;20073;-66
2022/01/03 04:04:52;;;;;;;11.18;3.30;;;;;;;-9.29;95.83;98535.53;4997306;28;20077;-66
2022/01/03 04:07:18;;;;;;;10.25;3.33;;;;;;;-9.32;95.91;98525.19;4995952;28;20060;-66
2022/01/03 04:09:44;;;;;;;9.90;3.13;;;;;;;-9.19;95.00;98542.13;4996005;28;20469;-70
2022/01/03 04:12:09;;;;;;;16.98;4.70;;;;;;;-9.18;95.45;98543.84;5013151;28;20045;-67
2022/01/03 04:14:35;;;;;;;12.13;3.10;;;;;;;-9.40;95.86;98509.75;5011567;28;20480;-67
2022/01/03 04:17:01;;;;;;;11.52;3.00;;;;;;;-9.29;95.64;98511.97;4978994;28;20132;-67
2022/01/03 04:19:28;;;;;;;12.27;4.22;;;;;;;-9.16;95.74;98526.31;4962583;28;20483;-69
2022/01/03 04:21:53;;;;;;;13.13;5.55;;;;;;;-9.18;95.79;98533.38;4978580;28;20042;-67
2022/01/03 04:24:20;;;;;;;17.00;5.40;;;;;;;-9.27;96.15;98538.94;4978757;28;20057;-68
2022/01/03 04:26:46;;;;;;;14.23;3.95;;;;;;;-9.26;96.34;98533.66;4994612;28;20038;-67
2022/01/03 04:29:13;;;;;;;15.48;4.90;;;;;;;-9.22;96.68;98534.38;4994265;28;20060;-68
2022/01/03 04:31:41;;;;;;;10.70;4.30;;;;;;;-9.25;96.92;98522.28;5011105;28;20046;-67
2022/01/03 04:34:08;;;;;;;11.10;3.45;;;;;;;-9.22;96.47;98526.53;5010986;28;20077;-66
2022/01/03 04:36:34;;;;;;;9.27;3.28;;;;;;;-9.40;96.62;98488.81;4994239;28;20048;-66
2022/01/03 04:39:00;;;;;;;10.38;3.97;;;;;;;-9.36;96.56;98506.13;4994522;28;20046;-66
2022/01/03 04:41:26;;;;;;;15.65;5.28;;;;;;;-9.32;96.53;98491.19;4994464;28;20516;-67
2022/01/03 04:43:52;;;;;;;13.55;4.93;;;;;;;-9.39;96.60;98481.84;5012344;28;20046;-66
2022/01/03 04:46:18;;;;;;;12.20;4.53;;;;;;;-9.34;97.07;98490.38;5012709;28;20046;-66
2022/01/03 04:48:44;;;;;;;14.38;4.35;;;;;;;-9.30;97.31;98499.81;4978679;28;20120;-66
2022/01/03 04:51:11;;;;;;;14.02;5.15;;;;;;;-9.56;96.87;98453.69;5010844;28;20049;-67
2022/01/03 04:53:39;;;;;;;14.10;4.63;;;;;;;-9.29;96.75;98488.44;5011093;28;20046;-66
2022/01/03 04:56:15;;;;;;;12.45;4.55;;;;;;;-9.28;96.92;98495.38;4965719;28;20509;-66
2022/01/03 04:58:42;;;;;;;12.73;4.70;;;;;;;-9.30;96.69;98478.88;4997627;28;20607;-67
2022/01/03 05:01:08;;;;;;;18.95;6.68;;;;;;;-9.37;96.73;98465.16;5013984;28;20053;-67
2022/01/03 05:03:34;;;;;;;14.55;5.72;;;;;;;-9.35;96.85;98473.81;4998077;28;20045;-69
2022/01/03 05:06:02;;;;;;;14.80;6.47;;;;;;;-9.33;97.09;98471.13;4997946;28;20061;-67
2022/01/03 05:08:29;;;;;;;16.08;6.80;;;;;;;-9.37;97.14;98461.69;4979208;28;20049;-66
2022/01/03 05:10:56;;;;;;;15.05;5.20;;;;;;;-9.34;97.28;98453.75;4995224;28;20148;-67
2022/01/03 05:13:22;;;;;;;14.32;6.20;;;;;;;-9.42;97.35;98438.34;4977796;28;20042;-66
2022/01/03 05:15:48;;;;;;;13.02;4.68;;;;;;;-9.33;97.42;98456.28;4994185;28;20038;-66
2022/01/03 05:18:14;;;;;;;13.82;5.53;;;;;;;-9.40;96.44;98436.50;4961625;28;20096;-66
2022/01/03 05:20:40;;;;;;;16.17;6.00;;;;;;;-9.34;96.90;98443.28;4993797;28;20041;-66
2022/01/03 05:23:06;;;;;;;14.80;6.18;;;;;;;-9.30;96.69;98456.19;4961604;28;20282;-67
2022/01/03 05:25:32;;;;;;;15.00;5.68;;;;;;;-9.22;96.46;98448.88;4994258;28;20061;-66
2022/01/03 05:27:58;;;;;;;12.50;5.05;;;;;;;-9.15;96.82;98444.28;5010217;28;20140;-67
2022/01/03 05:30:24;;;;;;;13.15;5.57;;;;;;;-9.19;96.20;98436.59;4961432;28;20157;-66
2022/01/03 05:32:50;;;;;;;17.77;5.85;;;;;;;-9.26;96.09;98435.97;4961546;28;20065;-66
2022/01/03 05:35:16;;;;;;;15.20;6.18;;;;;;;-9.31;96.71;98443.16;4993785;28;20049;-66
2022/01/03 05:37:42;;;;;;;11.13;4.65;;;;;;;-9.37;96.40;98433.78;4993536;28;20052;-66
2022/01/03 05:40:09;;;;;;;17.15;6.45;;;;;;;-9.31;96.71;98427.47;4993657;28;20046;-68
2022/01/03 05:42:35;;;;;;;16.58;6.18;;;;;;;-9.37;96.70;98427.69;4945901;28;20046;-66
2022/01/03 05:45:01;;;;;;;16.13;6.15;;;;;;;-9.42;96.90;98424.41;4993722;28;20053;-66
2022/01/03 05:47:30;;;;;;;15.75;5.30;;;;;;;-9.31;96.79;98436.16;4977245;28;20077;-66
2022/01/03 05:49:58;;;;;;;17.15;6.55;;;;;;;-9.32;96.99;98447.56;4945935;28;20050;-67
2022/01/03 05:52:24;;;;;;;15.20;6.43;;;;;;;-9.32;96.63;98444.09;4977115;28;20133;-66
2022/01/03 05:54:52;;;;;;;15.00;5.95;;;;;;;-9.34;96.61;98432.81;4977296;28;20497;-65
2022/01/03 05:57:19;;;;;;;16.33;5.72;;;;;;;-9.30;96.42;98434.41;4993376;28;20092;-65
2022/01/03 05:59:44;;;;;;;17.67;7.18;;;;;;;-9.66;96.76;98385.16;4993291;28;20119;-67
2022/01/03 06:02:11;;;;;;;17.38;6.07;;;;;;;-9.31;97.16;98437.94;4961135;28;20061;-67
2022/01/03 06:05:00;;;;;;;19.10;6.68;;;;;;;-9.29;97.05;98430.84;4977152;28;20054;-66
2022/01/03 06:07:22;;;;;;;20.27;6.82;;;;;;;-9.47;96.88;98390.56;4995932;28;20061;-66
2022/01/03 06:09:50;;;;;;;17.33;6.90;;;;;;;-9.34;96.90;98410.13;4961234;28;20100;-66
2022/01/03 06:12:17;;;;;;;14.13;5.55;;;;;;;-9.27;96.95;98414.19;4993500;28;20386;-66
2022/01/03 06:14:47;;;;;;;17.63;6.55;;;;;;;-9.29;96.73;98392.47;4977462;28;20112;-65
2022/01/03 06:17:14;;;;;;;22.48;8.02;;;;;;;-9.47;96.38;98370.50;5011244;28;20061;-66
2022/01/03 06:19:41;;;;;;;18.35;7.00;;;;;;;-9.35;96.11;98382.25;4993084;28;20417;-66
2022/01/03 06:22:09;;;;;;;16.35;5.90;;;;;;;-9.11;95.99;98398.75;4993510;28;20046;-65
2022/01/03 06:24:38;;;;;;;16.02;6.82;;;;;;;-9.12;95.40;98383.97;4961635;28;20521;-66
2022/01/03 06:27:05;;;;;;;16.70;6.43;;;;;;;-9.17;95.63;98370.22;4977403;28;20522;-66
2022/01/03 06:29:31;;;;;;;17.90;6.07;;;;;;;-9.03;95.52;98381.00;4976917;28;20068;-65
2022/01/03 06:31:58;;;;;;;12.50;4.28;;;;;;;-8.91;95.12;98368.31;4977166;28;20405;-65
2022/01/03 06:34:24;;;;;;;11.43;4.93;;;;;;;-8.87;94.70;98364.66;4977138;28;20057;-66
2022/01/03 06:36:50;;;;;;;14.70;5.15;;;;;;;-9.13;94.34;98311.59;4992981;28;20480;-66
2022/01/03 06:39:16;;;;;;;17.17;5.93;;;;;;;-8.94;94.19;98357.97;4976864;28;20120;-65
2022/01/03 06:41:43;;;;;;;19.35;6.07;;;;;;;-8.79;94.16;98359.94;4992456;28;20073;-66
2022/01/03 06:44:10;;;;;;;17.48;4.97;;;;;;;-9.01;93.76;98333.81;4977039;28;20473;-66
2022/01/03 06:46:36;;;;;;;14.73;5.55;;;;;;;-8.96;93.38;98338.84;4993363;28;20165;-67
2022/01/03 06:49:05;;;;;;;12.13;3.85;;;;;;;-8.98;93.83;98326.66;4976895;28;20136;-70
2022/01/03 06:51:34;;;;;;;19.55;7.40;;;;;;;-8.98;93.62;98337.13;4994509;28;20510;-66
2022/01/03 06:54:06;;;;;;;10.13;3.33;;;;;;;-8.89;94.07;98345.53;4996642;28;20065;-66
2022/01/03 06:56:33;;;;;;;17.77;7.55;;;;;;;-9.11;93.65;98309.75;4981359;28;20049;-66
2022/01/03 06:58:59;;;;;;;14.23;5.97;;;;;;;-9.05;93.89;98314.75;4999251;28;20042;-66
2022/01/03 07:01:24;;;;;;;12.02;5.05;;;;;;;-8.98;93.51;98326.66;4983186;28;20137;-67
2022/01/03 07:03:50;;;;;;;16.05;6.47;;;;;;;-8.83;93.08;98324.34;4964528;28;20048;-66
2022/01/03 07:06:16;;;;;;;19.33;6.47;;;;;;;-8.92;93.30;98324.69;4980062;28;20118;-66
2022/01/03 07:08:42;;;;;;;22.23;7.45;;;;;;;-8.99;93.40;98314.50;4980130;28;20046;-66
2022/01/03 07:11:08;;;;;;;14.18;5.40;;;;;;;-8.86;92.74;98293.03;4948044;28;20136;-67
2022/01/03 07:13:42;;;;;;;16.25;6.57;;;;;;;-9.11;92.78;98273.13;4996221;28;20090;-66
2022/01/03 07:19:00;;;;;;;;;;;;;;;-8.68;91.91;98310.59;4966593;28;20041;-66
2022/01/03 07:21:28;;;;;;;16.15;3.88;;;;;;;-8.52;90.89;98309.03;4980312;28;19921;-66
2022/01/03 07:23:54;;;;;;;14.90;5.60;;;;;;;-8.56;90.60;98312.69;5014005;28;20072;-66
2022/01/03 07:26:20;;;;;;;16.80;5.65;;;;;;;-8.77;91.18;98292.66;5016684;28;20041;-64
2022/01/03 07:28:46;;;;;;;14.45;4.78;;;;;;;-8.57;90.65;98299.66;4974140;28;20111;-66
2022/01/03 07:31:13;;;;;;;13.15;4.50;;;;;;;-8.70;90.49;98267.03;5022966;28;20077;-69
2022/01/03 07:33:38;;;;;;;7.18;2.55;;;;;;;-8.42;89.70;98300.75;4987041;28;20037;-64
2022/01/03 07:36:05;;;;;;;13.60;5.25;;;;;;;-8.43;89.84;98315.63;5008436;28;20049;-66
2022/01/03 07:38:31;;;;;;;13.52;4.60;;;;;;;-8.56;89.48;98289.09;5003939;28;20125;-66
2022/01/03 07:40:57;;;;;;;15.85;6.00;;;;;;;-8.41;89.99;98316.41;4993137;28;20074;-65
2022/01/03 07:43:23;;;;;;;17.75;4.90;;;;;;;-8.69;89.64;98269.63;4977939;28;20077;-66
2022/01/03 07:45:49;;;;;;;16.48;5.95;;;;;;;-8.33;89.70;98308.19;4975670;28;20065;-67
2022/01/03 07:48:15;;;;;;;16.48;6.43;;;;;;;-8.53;90.23;98296.84;4992985;28;20108;-70
2022/01/03 07:50:41;;;;;;;13.10;4.75;;;;;;;-8.36;89.81;98313.56;4986228;28;20466;-73
2022/01/03 07:53:07;;;;;;;12.45;4.60;;;;;;;-8.30;89.24;98300.19;4982911;28;20129;-63
2022/01/03 07:55:33;;;;;;;14.88;5.43;;;;;;;-8.31;88.31;98280.13;5018930;28;20077;-73
2022/01/03 07:57:59;;;;;;;14.27;5.03;;;;;;;-8.30;88.39;98285.31;4997603;28;20161;-74
2022/01/03 08:00:25;;;;;;;17.30;5.72;;;;;;;-8.31;87.93;98288.00;4992389;28;20048;-73
2022/01/03 08:02:51;;;;;;;16.42;5.70;;;;;;;-8.33;88.32;98292.47;4986382;28;20615;-68
2022/01/03 08:05:17;;;;;;;13.80;4.60;;;;;;;-8.35;88.34;98268.09;4954911;28;20065;-65
2022/01/03 08:07:45;;;;;;;13.82;4.85;;;;;;;-8.28;88.13;98274.75;4976141;28;20042;-68
2022/01/03 08:10:12;;;;;;;17.85;6.97;;;;;;;-8.35;87.91;98281.19;4968787;28;20053;-66
2022/01/03 08:12:39;;;;;;;15.98;5.55;;;;;;;-8.33;88.62;98272.34;4995614;28;20095;-66
2022/01/03 08:15:07;;;;;;;13.18;4.80;;;;;;;-8.49;87.84;98218.94;4998452;28;20104;-66
2022/01/03 08:17:33;;;;;;;18.90;5.15;;;;;;;-8.40;87.76;98217.72;5001606;28;20045;-71
2022/01/03 08:19:59;;;;;;;17.10;5.05;;;;;;;-8.43;87.74;98213.44;4990925;28;20052;-68
2022/01/03 08:22:25;;;;;;;14.45;4.85;;;;;;;-8.17;86.90;98222.72;4975895;28;20041;-71
2022/01/03 08:24:51;;;;;;;14.98;5.75;;;;;;;-8.12;86.31;98243.47;4953289;28;20061;-71
2022/01/03 08:27:17;;;;;;;11.98;3.92;;;;;;;-7.96;86.59;98243.63;4988471;28;20034;-72
2022/01/03 08:29:42;;;;;;;14.85;5.65;;;;;;;-8.06;86.04;98235.31;4987944;28;20805;-75
2022/01/03 08:32:08;;;;;;;14.23;5.65;;;;;;;-8.17;87.35;98230.56;4990780;28;20049;-75
2022/01/03 08:34:35;;;;;;;16.25;6.20;;;;;;;-8.22;86.87;98222.09;4979271;28;20049;-69
2022/01/03 08:37:00;;;;;;;15.50;5.20;;;;;;;-8.14;86.53;98206.84;4993246;28;20037;-68
2022/01/03 08:39:27;;;;;;;16.70;5.47;;;;;;;-7.98;86.14;98230.56;4977787;28;20069;-68
2022/01/03 08:41:53;;;;;;;12.05;4.28;;;;;;;-7.82;86.02;98241.22;4980064;28;20108;-68
2022/01/03 08:44:18;;;;;;;10.07;2.72;;;;;;;-7.83;84.84;98216.72;4983908;28;20045;-69
2022/01/03 08:46:46;;;;;;;12.40;4.60;;;;;;;-7.93;84.64;98191.00;4974463;28;20037;-76
2022/01/03 08:49:16;;;;;;;15.63;4.95;;;;;;;-7.57;84.51;98210.25;4991861;28;20054;-67
2022/01/03 08:51:42;;;;;;;13.93;4.88;;;;;;;-7.70;84.16;98206.50;5017933;28;20435;-69
2022/01/03 08:54:08;;;;;;;14.10;4.50;;;;;;;-7.81;84.17;98187.81;5018691;28;20052;-74
2022/01/03 08:56:35;;;;;;;12.50;4.50;;;;;;;-7.71;84.42;98191.72;4970060;28;20465;-72
2022/01/03 08:59:02;;;;;;;14.68;5.50;;;;;;;-7.80;84.88;98176.41;4992483;28;20037;-68
2022/01/03 09:01:28;;;;;;;12.35;4.20;;;;;;;-7.69;84.41;98179.34;5017874;28;20050;-67
2022/01/03 09:03:53;;;;;;;10.32;3.70;;;;;;;-7.76;83.12;98147.31;4976693;28;20038;-68
2022/01/03 09:06:20;;;;;;;12.23;4.13;;;;;;;-7.58;83.21;98166.56;4984258;28;20073;-68
2022/01/03 09:08:47;;;;;;;12.68;4.22;;;;;;;-7.72;83.16;98147.16;5014416;28;20029;-69
2022/01/03 09:11:13;;;;;;;9.35;2.92;;;;;;;-7.80;83.89;98147.53;5022449;28;20490;-67
2022/01/03 09:13:40;;;;;;;9.23;3.38;;;;;;;-8.09;83.53;98091.28;5000530;28;20500;-67
2022/01/03 09:16:07;;;;;;;12.50;4.32;;;;;;;-7.82;84.07;98136.31;5008256;28;20049;-68
2022/01/03 09:18:38;;;;;;;9.02;3.40;;;;;;;-7.63;83.59;98147.56;5002361;28;20080;-67
2022/01/03 09:21:04;;;;;;;;;;;;;;;-7.42;82.84;98150.03;4993201;28;20169;-68
2022/01/03 09:23:35;;;;;;;12.55;3.78;;;;;;;-7.66;82.65;98111.00;5009991;28;20377;-67
2022/01/03 09:28:53;;;;;;;;;;;;;;;-7.46;83.79;98138.00;5017176;28;20049;-68
2022/01/03 09:31:34;;;;;;;7.47;3.42;;;;;;;-7.44;82.34;98130.91;4988350;28;20015;-67
2022/01/03 09:34:03;;;;;;;12.27;4.38;;;;;;;-7.39;82.47;98131.53;5012280;28;20534;-68
2022/01/03 09:36:30;;;;;;;11.90;4.03;;;;;;;-7.29;81.31;98125.72;4984981;28;20041;-67
2022/01/03 09:38:56;;;;;;;12.80;4.20;;;;;;;-7.45;81.99;98139.72;5012385;28;20479;-67
2022/01/03 09:41:24;;;;;;;14.40;4.63;;;;;;;-7.69;82.68;98111.16;4980948;28;20042;-68
2022/01/03 09:44:02;;;;;;;13.90;4.75;;;;;;;-7.41;82.11;98138.63;5014557;28;20405;-67
2022/01/03 09:46:33;;;;;;;15.88;5.97;;;;;;;-7.49;82.65;98144.28;4983812;28;20045;-67
2022/01/03 09:48:59;;;;;;;16.65;5.38;;;;;;;-7.45;82.24;98118.72;4990431;28;20053;-68
2022/01/03 09:51:27;;;;;;;14.32;4.88;;;;;;;-7.42;81.49;98084.44;4962832;28;20037;-66
2022/01/03 09:53:55;;;;;;;7.15;2.08;;;;;;;-7.33;81.43;98118.94;4990545;28;20171;-67
2022/01/03 09:56:20;;;;;;;10.82;4.45;;;;;;;-7.37;81.91;98116.56;5006191;28;20075;-66
2022/01/03 09:58:47;;;;;;;12.02;4.38;;;;;;;-7.53;82.29;98093.72;4990248;28;20038;-74
2022/01/03 10:01:13;;;;;;;15.60;4.18;;;;;;;-7.40;82.00;98111.47;4957543;28;20047;-72
2022/01/03 10:03:47;;;;;;;13.05;5.43;;;;;;;-7.88;82.31;98058.75;4987932;28;20044;-76
2022/01/03 10:06:15;;;;;;;22.60;5.20;;;;;;;-7.61;82.61;98076.66;4994487;28;20042;-68
2022/01/03 10:08:41;;;;;;;9.07;4.18;;;;;;;-7.53;82.78;98098.97;5007942;28;20048;-69
2022/01/03 10:11:07;;;;;;;12.90;4.80;;;;;;;-7.98;82.01;98036.53;4998292;28;20487;-73
2022/01/03 10:13:33;;;;;;;7.15;2.40;;;;;;;-7.72;83.23;98090.31;4979291;28;20386;-68
2022/01/03 10:16:00;;;;;;;11.48;4.43;;;;;;;-7.78;83.67;98078.38;4991477;28;20041;-66
2022/01/03 10:18:29;;;;;;;13.35;4.30;;;;;;;-7.87;83.04;98062.22;4958906;28;20570;-67
2022/01/03 10:20:56;;;;;;;15.43;4.63;;;;;;;-7.57;82.33;98089.56;4993903;28;20045;-66
2022/01/03 10:23:21;;;;;;;11.32;3.78;;;;;;;-7.59;82.47;98091.41;4992386;28;20096;-66
2022/01/03 10:25:47;;;;;;;15.45;5.28;;;;;;;-7.77;82.85;98050.34;4952639;28;20481;-66
2022/01/03 10:28:24;;;;;;;8.88;3.10;;;;;;;-7.75;82.83;98066.88;4966331;28;20187;-66
2022/01/03 10:30:51;;;;;;;10.40;3.83;;;;;;;-7.66;82.32;98073.44;5002307;28;20104;-73
2022/01/03 10:33:19;;;;;;;13.88;4.78;;;;;;;-7.59;82.60;98075.66;4981162;28;20052;-71
2022/01/03 10:35:47;;;;;;;14.48;4.47;;;;;;;-7.85;82.36;98021.06;4974508;28;20140;-70
2022/01/03 10:38:36;;;;;;;16.45;5.68;;;;;;;-7.84;82.91;98064.69;4962491;28;20052;-73
2022/01/03 10:41:16;;;;;;;13.10;5.10;;;;;;;-7.82;83.53;98057.63;4998895;28;20119;-70
2022/01/03 10:43:47;;;;;;;5.93;2.03;;;;;;;-7.83;83.62;98034.91;4989081;28;20087;-73
2022/01/03 10:46:34;;;;;;;15.63;4.72;;;;;;;-7.85;82.77;98027.16;5016072;28;20038;-67
2022/01/03 10:49:07;;;;;;;17.10;5.45;;;;;;;-8.06;82.82;98002.84;4984786;28;20061;-67
2022/01/03 10:51:33;;;;;;;8.23;2.97;;;;;;;-7.77;83.22;98045.13;5006129;28;20490;-67
2022/01/03 10:53:59;;;;;;;13.43;4.13;;;;;;;-7.93;83.35;98029.31;4987843;28;20148;-67
2022/01/03 10:56:31;;;;;;;12.00;4.15;;;;;;;-8.04;83.75;98008.88;4994771;28;20048;-68
2022/01/03 10:59:18;;;;;;;15.27;5.00;;;;;;;-7.85;83.32;98036.78;4981243;28;20088;-67
2022/01/03 11:01:48;;;;;;;9.75;3.25;;;;;;;-7.89;83.45;98040.50;4993158;28;20413;-67
2022/01/03 11:04:34;;;;;;;12.52;4.22;;;;;;;-7.81;83.70;98048.81;5005443;28;20050;-67
2022/01/03 11:13:14;;;;;;;16.88;4.43;;;;;;;-7.66;83.25;98048.03;4995242;28;20041;-67
2022/01/03 11:15:54;;;;;;;16.10;5.10;;;;;;;-7.60;83.51;98034.63;4997627;28;20103;-67
2022/01/03 11:18:22;;;;;;;12.73;4.85;;;;;;;-7.83;83.49;97983.31;4998737;28;20294;-67
2022/01/03 11:21:11;;;;;;;13.20;4.68;;;;;;;-7.58;83.67;98027.50;4991050;28;20053;-67
2022/01/03 11:23:39;;;;;;;14.07;4.00;;;;;;;-7.72;82.36;98008.16;5019896;28;20453;-67
2022/01/03 11:26:16;;;;;;;13.73;4.70;;;;;;;-7.87;82.59;97994.88;4980894;28;20136;-67
2022/01/03 11:28:43;;;;;;;18.20;6.05;;;;;;;-7.69;83.46;98027.19;4980046;28;20045;-68
2022/01/03 11:31:12;;;;;;;11.90;4.68;;;;;;;-7.67;82.92;98020.13;5001846;28;20054;-67
2022/01/03 11:33:39;;;;;;;12.52;4.43;;;;;;;-7.71;83.09;98021.19;5013804;28;20523;-68
2022/01/03 11:36:05;;;;;;;12.50;4.47;;;;;;;-7.62;83.53;98010.22;4981291;28;20041;-67
2022/01/03 11:38:38;;;;;;;12.77;4.95;;;;;;;-7.89;84.00;97974.94;4978565;28;20124;-68
2022/01/03 11:41:08;;;;;;;13.25;3.72;;;;;;;-7.85;83.93;97990.44;4963768;28;20493;-68
2022/01/03 11:43:35;;;;;;;12.85;3.88;;;;;;;-7.75;84.42;98006.56;4957204;28;20053;-69
2022/01/03 11:46:01;;;;;;;18.75;7.03;;;;;;;-7.91;84.08;97979.41;5011307;28;20124;-67